createdAt,value
2023-04-21T00:02:17.659Z,23.67
2023-04-21T00:04:47.369Z,22.00
2023-04-21T00:07:14.917Z,21.00
2023-04-21T00:09:41.637Z,23.50
2023-04-21T00:12:08.339Z,23.00
2023-04-21T00:14:34.852Z,24.93
2023-04-21T00:17:01.516Z,24.27
2023-04-21T00:19:29.063Z,24.57
2023-04-21T00:21:59.536Z,21.73
2023-04-21T00:24:26.094Z,21.47
2023-04-21T00:26:52.744Z,23.03
2023-04-21T00:29:19.897Z,23.43
2023-04-21T00:31:48.873Z,23.00
2023-04-21T00:34:15.553Z,24.70
2023-04-21T00:36:42.117Z,24.00
2023-04-21T00:39:08.671Z,23.83
2023-04-21T00:41:36.318Z,26.10
2023-04-21T00:44:03.655Z,27.90
2023-04-21T00:46:30.180Z,27.37
2023-04-21T00:48:57.493Z,27.63
2023-04-21T00:51:24.441Z,26.17
2023-04-21T00:53:51.368Z,26.70
2023-04-21T00:56:18.898Z,26.93
2023-04-21T00:58:45.914Z,27.00
2023-04-21T01:01:13.487Z,25.63
2023-04-21T01:03:41.771Z,28.63
2023-04-21T01:06:09.307Z,28.33
2023-04-21T01:08:36.578Z,27.13
2023-04-21T01:11:09.524Z,28.90
2023-04-21T01:13:36.079Z,26.63
2023-04-21T01:16:02.753Z,25.90
2023-04-21T01:18:29.566Z,30.27
2023-04-21T01:20:56.904Z,29.07
2023-04-21T01:23:23.440Z,28.83
2023-04-21T01:25:51.601Z,29.40
2023-04-21T01:28:24.917Z,27.87
2023-04-21T01:30:52.041Z,28.93
2023-04-21T01:33:19.151Z,31.83
2023-04-21T01:35:46.081Z,30.13
2023-04-21T01:38:12.737Z,30.07
2023-04-21T01:40:41.975Z,31.27
2023-04-21T01:43:09.325Z,29.93
2023-04-21T01:45:36.334Z,32.60
2023-04-21T01:48:03.192Z,30.83
2023-04-21T01:50:30.466Z,30.33
2023-04-21T01:52:56.993Z,28.90
2023-04-21T01:55:23.506Z,29.00
2023-04-21T01:57:50.075Z,29.73
2023-04-21T02:00:16.859Z,34.67
2023-04-21T02:02:43.530Z,32.87
2023-04-21T02:05:10.065Z,33.17
2023-04-21T02:07:36.572Z,32.93
2023-04-21T02:10:03.148Z,31.60
2023-04-21T02:12:29.630Z,31.00
2023-04-21T02:14:58.620Z,30.17
2023-04-21T02:17:27.950Z,32.63
2023-04-21T02:19:54.561Z,31.90
2023-04-21T02:22:22.655Z,33.20
2023-04-21T02:24:49.461Z,35.03
2023-04-21T02:27:16.167Z,36.70
2023-04-21T02:29:42.747Z,38.20
2023-04-21T02:32:22.297Z,38.87
2023-04-21T02:34:52.217Z,40.87
2023-04-21T02:37:18.797Z,46.10
2023-04-21T02:39:45.661Z,43.33
2023-04-21T02:42:12.149Z,45.37
2023-04-21T02:44:38.851Z,43.87
2023-04-21T02:47:05.519Z,44.50
2023-04-21T02:49:34.286Z,50.13
2023-04-21T02:52:01.229Z,42.93
2023-04-21T02:54:27.786Z,39.87
2023-04-21T02:56:54.598Z,40.63
2023-04-21T02:59:21.205Z,38.63
2023-04-21T03:01:49.682Z,40.67
2023-04-21T03:04:16.693Z,42.20
2023-04-21T03:06:43.344Z,43.53
2023-04-21T03:09:09.864Z,39.57
2023-04-21T03:11:36.480Z,47.87
2023-04-21T03:14:02.992Z,42.23
2023-04-21T03:16:29.674Z,41.43
2023-04-21T03:18:56.220Z,38.80
2023-04-21T03:21:22.742Z,37.93
2023-04-21T03:23:49.206Z,39.07
2023-04-21T03:26:16.536Z,36.30
2023-04-21T03:28:43.061Z,39.50
2023-04-21T03:31:09.621Z,36.47
2023-04-21T03:33:36.210Z,42.90
2023-04-21T03:36:02.721Z,34.70
2023-04-21T03:38:30.140Z,38.03
2023-04-21T03:40:56.634Z,39.23
2023-04-21T03:43:23.138Z,36.00
2023-04-21T03:45:49.772Z,39.33
2023-04-21T03:48:16.288Z,35.97
2023-04-21T03:50:42.826Z,34.50
2023-04-21T03:53:09.354Z,35.10
2023-04-21T03:55:35.992Z,35.63
2023-04-21T03:58:02.894Z,34.40
2023-04-21T04:00:29.466Z,37.17
2023-04-21T04:02:56.119Z,33.97
2023-04-21T04:05:22.687Z,32.77
2023-04-21T04:07:49.687Z,33.80
2023-04-21T04:10:16.150Z,34.87
2023-04-21T04:12:42.750Z,37.93
2023-04-21T04:15:09.551Z,32.70
2023-04-21T04:17:36.074Z,35.20
2023-04-21T04:20:04.905Z,33.17
2023-04-21T04:22:31.430Z,33.30
2023-04-21T04:24:59.865Z,35.73
2023-04-21T04:27:27.782Z,33.07
2023-04-21T04:29:54.408Z,34.70
2023-04-21T04:32:20.970Z,32.03
2023-04-21T04:34:47.461Z,32.93
2023-04-21T04:37:13.989Z,32.20
2023-04-21T04:39:40.652Z,32.70
2023-04-21T04:42:09.336Z,33.43
2023-04-21T04:44:36.476Z,31.07
2023-04-21T04:47:03.245Z,32.63
2023-04-21T04:49:29.995Z,31.60
2023-04-21T04:51:56.817Z,33.40
2023-04-21T04:54:23.329Z,33.27
2023-04-21T04:56:49.822Z,33.13
2023-04-21T04:59:16.441Z,33.67
2023-04-21T05:01:43.010Z,34.13
2023-04-21T05:04:09.824Z,32.87
2023-04-21T05:06:36.425Z,32.03
2023-04-21T05:09:05.004Z,34.20
2023-04-21T05:11:31.603Z,32.93
2023-04-21T05:13:58.100Z,32.83
2023-04-21T05:16:24.849Z,34.20
2023-04-21T05:18:54.128Z,31.73
2023-04-21T05:21:25.169Z,32.17
2023-04-21T05:23:51.657Z,31.90
2023-04-21T05:26:18.134Z,30.93
2023-04-21T05:28:44.732Z,31.97
2023-04-21T05:31:11.265Z,32.73
2023-04-21T05:33:37.747Z,33.17
2023-04-21T05:36:07.226Z,33.50
2023-04-21T05:38:33.752Z,31.53
2023-04-21T05:41:00.309Z,31.03
2023-04-21T05:43:26.896Z,31.70
2023-04-21T05:45:53.518Z,30.70
2023-04-21T05:48:20.245Z,32.70
2023-04-21T05:50:46.796Z,31.63
2023-04-21T05:53:13.299Z,29.37
2023-04-21T05:55:39.856Z,28.50
2023-04-21T05:58:06.407Z,30.23
2023-04-21T06:00:33.089Z,27.63
2023-04-21T06:02:59.717Z,27.83
2023-04-21T06:05:26.434Z,29.33
2023-04-21T06:07:52.994Z,28.00
2023-04-21T06:10:19.664Z,29.20
2023-04-21T06:12:46.178Z,26.33
2023-04-21T06:15:12.665Z,26.33
2023-04-21T06:17:39.210Z,29.37
2023-04-21T06:20:06.110Z,27.07
2023-04-21T06:22:33.207Z,28.40
2023-04-21T06:25:00.601Z,27.50
2023-04-21T06:27:27.330Z,27.37
2023-04-21T06:29:56.864Z,32.10
2023-04-21T06:32:23.460Z,27.60
2023-04-21T06:34:50.050Z,26.93
2023-04-21T06:37:16.674Z,29.60
2023-04-21T06:39:43.165Z,28.20
2023-04-21T06:42:09.683Z,32.57
2023-04-21T06:44:38.110Z,28.90
2023-04-21T06:47:04.804Z,29.20
2023-04-21T06:49:31.385Z,29.80
2023-04-21T06:51:57.872Z,28.73
2023-04-21T06:54:24.374Z,30.50
2023-04-21T06:56:51.554Z,27.27
2023-04-21T06:59:18.597Z,32.43
2023-04-21T07:01:45.418Z,29.23
2023-04-21T07:04:12.008Z,29.37
2023-04-21T07:06:38.582Z,29.43
2023-04-21T07:09:06.093Z,27.57
2023-04-21T07:11:32.621Z,32.87
2023-04-21T07:14:02.451Z,26.03
2023-04-21T07:16:30.521Z,29.70
2023-04-21T07:18:57.029Z,31.43
2023-04-21T07:21:23.548Z,29.47
2023-04-21T07:23:50.504Z,29.80
2023-04-21T07:26:18.254Z,28.70
2023-04-21T07:28:44.761Z,27.93
2023-04-21T07:31:11.736Z,27.47
2023-04-21T07:33:38.268Z,27.23
2023-04-21T07:36:04.892Z,24.70
2023-04-21T07:38:31.909Z,26.00
2023-04-21T07:40:58.511Z,28.97
2023-04-21T07:43:25.608Z,27.50
2023-04-21T07:45:52.835Z,29.27
2023-04-21T07:48:19.407Z,30.67
2023-04-21T07:50:46.021Z,31.03
2023-04-21T07:53:12.934Z,29.50
2023-04-21T07:55:39.479Z,30.63
2023-04-21T07:58:06.644Z,29.80
2023-04-21T08:00:33.198Z,26.70
2023-04-21T08:02:59.949Z,31.87
2023-04-21T08:05:30.105Z,33.90
2023-04-21T08:07:58.845Z,30.43
2023-04-21T08:10:25.426Z,31.50
2023-04-21T08:12:51.942Z,29.43
2023-04-21T08:15:18.649Z,27.63
2023-04-21T08:17:45.241Z,25.63
2023-04-21T08:20:12.058Z,32.37
2023-04-21T08:22:38.598Z,30.03
2023-04-21T08:25:05.853Z,32.13
2023-04-21T08:27:32.352Z,27.90
2023-04-21T08:30:00.691Z,27.67
2023-04-21T08:32:27.608Z,29.27
2023-04-21T08:34:54.419Z,28.30
2023-04-21T08:37:21.687Z,27.47
2023-04-21T08:39:50.920Z,29.40
2023-04-21T08:42:18.033Z,26.90
2023-04-21T08:44:44.761Z,29.67
2023-04-21T08:47:11.912Z,30.70
2023-04-21T08:49:38.874Z,29.53
2023-04-21T08:52:05.749Z,28.03
2023-04-21T08:54:32.473Z,27.87
2023-04-21T08:57:07.944Z,29.63
2023-04-21T08:59:41.502Z,28.57
2023-04-21T09:02:09.006Z,26.50
2023-04-21T09:04:38.141Z,25.97
2023-04-21T09:07:04.790Z,27.07
2023-04-21T09:09:31.428Z,27.13
2023-04-21T09:11:58.782Z,23.50
2023-04-21T09:14:35.198Z,26.33
2023-04-21T09:17:02.847Z,26.40
2023-04-21T09:19:29.985Z,22.07
2023-04-21T09:21:57.638Z,25.03
2023-04-21T09:24:24.223Z,23.80
2023-04-21T09:26:52.218Z,23.77
2023-04-21T09:29:19.200Z,20.63
2023-04-21T09:31:49.422Z,22.27
2023-04-21T09:34:24.769Z,22.83
2023-04-21T09:37:02.056Z,25.77
2023-04-21T09:39:45.693Z,21.00
2023-04-21T09:42:18.757Z,21.20
2023-04-21T09:44:52.537Z,22.23
2023-04-21T09:47:23.516Z,19.90
2023-04-21T09:49:52.892Z,18.70
2023-04-21T09:52:22.348Z,19.40
2023-04-21T09:54:57.348Z,18.57
2023-04-21T09:57:27.061Z,22.63
2023-04-21T09:59:56.228Z,23.77
2023-04-21T10:02:25.622Z,19.63
2023-04-21T10:04:52.729Z,20.57
2023-04-21T10:07:19.523Z,21.13
2023-04-21T10:09:54.900Z,20.50
2023-04-21T10:12:22.321Z,24.23
2023-04-21T10:14:56.325Z,20.73
2023-04-21T10:17:25.003Z,20.37
2023-04-21T10:19:57.465Z,21.70
2023-04-21T10:22:28.825Z,19.23
2023-04-21T10:24:56.216Z,22.77
2023-04-21T10:27:33.119Z,37.40
2023-04-21T10:29:59.998Z,32.27
2023-04-21T10:32:42.586Z,25.90
2023-04-21T10:35:10.309Z,21.77
2023-04-21T10:37:36.803Z,21.07
2023-04-21T10:40:09.356Z,22.50
2023-04-21T10:42:38.465Z,22.63
2023-04-21T10:45:08.744Z,25.23
2023-04-21T10:47:38.449Z,21.73
2023-04-21T10:50:18.380Z,22.70
2023-04-21T10:52:46.280Z,24.63
2023-04-21T10:55:15.901Z,25.17
2023-04-21T10:57:44.694Z,23.00
2023-04-21T11:00:12.085Z,23.13
2023-04-21T11:02:41.131Z,23.17
2023-04-21T11:05:09.485Z,24.20
2023-04-21T11:07:36.207Z,26.67
2023-04-21T11:10:04.305Z,25.23
2023-04-21T11:12:31.875Z,22.93
2023-04-21T11:14:59.079Z,26.40
2023-04-21T11:17:25.839Z,23.10
2023-04-21T11:19:54.822Z,26.00
2023-04-21T11:22:22.400Z,23.27
2023-04-21T11:24:50.824Z,25.07
2023-04-21T11:27:18.170Z,26.07
2023-04-21T11:29:45.897Z,24.30
2023-04-21T11:32:12.700Z,25.93
2023-04-21T11:34:40.012Z,21.47
2023-04-21T11:37:14.678Z,24.53
2023-04-21T11:39:41.931Z,26.63
2023-04-21T11:42:08.413Z,23.60
2023-04-21T11:44:36.061Z,25.67
2023-04-21T11:47:19.027Z,25.37
2023-04-21T11:49:47.276Z,24.70
2023-04-21T11:52:27.134Z,22.30
2023-04-21T11:55:00.835Z,24.00
2023-04-21T11:57:28.054Z,23.80
2023-04-21T11:59:54.747Z,24.97
2023-04-21T12:02:23.344Z,22.47
2023-04-21T12:05:02.380Z,26.47
2023-04-21T12:07:30.127Z,23.63
2023-04-21T12:09:56.674Z,21.37
2023-04-21T12:12:24.594Z,22.00
2023-04-21T12:14:51.886Z,22.57
2023-04-21T12:17:18.607Z,22.00
2023-04-21T12:19:45.133Z,22.87
2023-04-21T12:22:12.528Z,21.60
2023-04-21T12:24:39.635Z,20.73
2023-04-21T12:27:07.098Z,20.30
2023-04-21T12:29:37.725Z,22.50
2023-04-21T12:32:05.036Z,18.67
2023-04-21T12:34:31.721Z,20.40
2023-04-21T12:36:58.214Z,20.73
2023-04-21T12:39:24.744Z,17.80
2023-04-21T12:41:51.516Z,18.60
2023-04-21T12:44:18.267Z,18.27
2023-04-21T12:46:44.743Z,19.07
2023-04-21T12:49:11.838Z,18.50
2023-04-21T12:51:38.414Z,16.53
2023-04-21T12:54:07.528Z,16.50
2023-04-21T12:56:34.007Z,21.83
2023-04-21T12:59:00.669Z,15.13
2023-04-21T13:01:27.233Z,15.97
2023-04-21T13:03:54.047Z,18.00
2023-04-21T13:06:21.143Z,15.20
2023-04-21T13:08:47.629Z,15.00
2023-04-21T13:11:14.095Z,18.10
2023-04-21T13:13:40.960Z,14.13
2023-04-21T13:16:07.483Z,18.37
2023-04-21T13:18:39.301Z,14.73
2023-04-21T13:21:06.615Z,13.60
2023-04-21T13:23:33.272Z,13.63
2023-04-21T13:25:59.800Z,14.23
2023-04-21T13:28:27.268Z,15.13
2023-04-21T13:30:54.168Z,13.80
2023-04-21T13:33:21.310Z,13.20
2023-04-21T13:35:47.981Z,12.47
2023-04-21T13:38:14.502Z,12.63
2023-04-21T13:40:41.031Z,14.60
2023-04-21T13:43:07.524Z,12.83
2023-04-21T13:45:34.236Z,14.37
2023-04-21T13:48:00.791Z,17.20
2023-04-21T13:50:30.340Z,12.47
2023-04-21T13:52:56.827Z,14.53
2023-04-21T13:55:23.379Z,13.70
2023-04-21T13:57:50.330Z,14.37
2023-04-21T14:00:17.178Z,13.73
2023-04-21T14:02:44.377Z,14.53
2023-04-21T14:05:11.286Z,14.47
2023-04-21T14:07:37.981Z,12.80
2023-04-21T14:10:04.596Z,12.87
2023-04-21T14:12:31.211Z,16.87
2023-04-21T14:14:57.792Z,12.63
2023-04-21T14:17:24.449Z,15.20
2023-04-21T14:19:52.022Z,14.37
2023-04-21T14:22:21.112Z,12.20
2023-04-21T14:24:47.613Z,11.80
2023-04-21T14:27:16.943Z,12.93
2023-04-21T14:29:43.466Z,14.67
2023-04-21T14:32:10.151Z,15.10
2023-04-21T14:34:36.705Z,11.80
2023-04-21T14:37:03.374Z,12.07
2023-04-21T14:39:29.894Z,11.67
2023-04-21T14:41:56.413Z,11.83
2023-04-21T14:44:23.376Z,12.30
2023-04-21T14:47:00.947Z,11.07
2023-04-21T14:49:33.108Z,10.20
2023-04-21T14:51:59.749Z,9.43
2023-04-21T14:54:26.273Z,9.13
2023-04-21T14:57:00.512Z,9.73
2023-04-21T14:59:34.047Z,7.73
2023-04-21T15:02:00.930Z,7.67
2023-04-21T15:04:27.813Z,7.27
2023-04-21T15:06:54.763Z,8.17
2023-04-21T15:09:21.713Z,8.23
2023-04-21T15:11:48.219Z,8.77
2023-04-21T15:14:14.830Z,6.17
2023-04-21T15:16:41.389Z,6.13
2023-04-21T15:19:08.406Z,6.03
2023-04-21T15:21:34.917Z,8.30
2023-04-21T15:24:01.467Z,5.57
2023-04-21T15:26:30.423Z,6.60
2023-04-21T15:28:57.707Z,9.50
2023-04-21T15:31:24.310Z,5.43
2023-04-21T15:33:50.929Z,7.53
2023-04-21T15:36:17.405Z,6.40
2023-04-21T15:38:45.128Z,5.77
2023-04-21T15:41:16.266Z,8.03
2023-04-21T15:43:42.903Z,7.67
2023-04-21T15:46:15.263Z,5.60
2023-04-21T15:48:42.385Z,5.53
2023-04-21T15:51:09.367Z,8.43
2023-04-21T15:53:37.481Z,8.70
2023-04-21T15:56:07.183Z,7.70
2023-04-21T15:58:33.656Z,8.27
2023-04-21T16:01:00.271Z,6.43
2023-04-21T16:03:27.392Z,6.43
2023-04-21T16:05:54.172Z,7.33
2023-04-21T16:08:20.993Z,5.90
2023-04-21T16:10:47.722Z,8.33
2023-04-21T16:13:14.248Z,7.10
2023-04-21T16:15:41.112Z,9.03
2023-04-21T16:18:08.612Z,6.00
2023-04-21T16:20:36.149Z,5.87
2023-04-21T16:23:04.837Z,7.13
2023-04-21T16:25:34.511Z,7.60
2023-04-21T16:28:01.101Z,8.27
2023-04-21T16:30:27.833Z,5.73
2023-04-21T16:32:56.605Z,6.80
2023-04-21T16:35:23.376Z,5.43
2023-04-21T16:37:49.959Z,6.00
2023-04-21T16:40:16.582Z,7.87
2023-04-21T16:42:43.230Z,8.70
2023-04-21T16:45:09.974Z,8.90
2023-04-21T16:47:41.722Z,6.13
2023-04-21T16:50:09.232Z,6.43
2023-04-21T16:52:35.875Z,6.00
2023-04-21T16:55:02.442Z,5.63
2023-04-21T16:57:29.912Z,7.23
2023-04-21T16:59:56.473Z,4.80
2023-04-21T17:02:23.475Z,4.70
2023-04-21T17:04:50.098Z,4.57
2023-04-21T17:07:17.413Z,6.03
2023-04-21T17:09:43.932Z,4.97
2023-04-21T17:12:10.429Z,6.10
2023-04-21T17:14:37.167Z,5.27
2023-04-21T17:17:03.981Z,5.23
2023-04-21T17:19:30.568Z,7.20
2023-04-21T17:21:57.127Z,9.03
2023-04-21T17:24:23.590Z,5.93
2023-04-21T17:26:50.122Z,7.57
2023-04-21T17:29:16.659Z,3.97
2023-04-21T17:31:43.192Z,6.77
2023-04-21T17:34:09.742Z,3.90
2023-04-21T17:36:36.471Z,6.43
2023-04-21T17:39:03.013Z,5.27
2023-04-21T17:41:29.532Z,11.17
2023-04-21T17:43:56.079Z,7.30
2023-04-21T17:46:24.937Z,7.17
2023-04-21T17:48:51.946Z,7.30
2023-04-21T17:51:19.440Z,8.47
2023-04-21T17:53:46.793Z,9.93
2023-04-21T17:56:14.557Z,10.03
2023-04-21T17:58:41.516Z,12.93
2023-04-21T18:01:08.380Z,10.37
2023-04-21T18:03:36.451Z,11.23
2023-04-21T18:06:03.090Z,8.47
2023-04-21T18:08:29.634Z,7.77
2023-04-21T18:10:58.434Z,13.33
2023-04-21T18:13:25.055Z,6.00
2023-04-21T18:15:51.806Z,8.60
2023-04-21T18:18:18.294Z,5.30
2023-04-21T18:20:44.890Z,5.47
2023-04-21T18:23:11.559Z,7.00
2023-04-21T18:25:42.753Z,8.20
2023-04-21T18:28:11.308Z,8.00
2023-04-21T18:30:37.928Z,14.93
2023-04-21T18:33:04.526Z,6.23
2023-04-21T18:35:33.238Z,9.53
2023-04-21T18:37:59.785Z,5.70
2023-04-21T18:40:26.290Z,8.00
2023-04-21T18:42:52.793Z,5.03
2023-04-21T18:45:19.333Z,6.97
2023-04-21T18:47:46.963Z,7.33
2023-04-21T18:50:13.600Z,8.63
2023-04-21T18:52:40.161Z,7.27
2023-04-21T18:55:06.779Z,8.67
2023-04-21T18:57:33.301Z,8.03
2023-04-21T19:00:00.428Z,9.07
2023-04-21T19:02:28.572Z,3.67
2023-04-21T19:04:55.414Z,6.00
2023-04-21T19:07:22.200Z,5.90
2023-04-21T19:09:48.729Z,7.43
2023-04-21T19:12:16.125Z,7.47
2023-04-21T19:14:47.098Z,4.57
2023-04-21T19:17:14.601Z,5.23
2023-04-21T19:19:41.361Z,4.37
2023-04-21T19:22:08.055Z,7.80
2023-04-21T19:24:34.614Z,7.67
2023-04-21T19:27:05.620Z,6.07
2023-04-21T19:29:32.439Z,9.50
2023-04-21T19:31:59.461Z,8.00
2023-04-21T19:34:26.029Z,4.93
2023-04-21T19:36:53.064Z,5.93
2023-04-21T19:39:19.635Z,8.10
2023-04-21T19:41:46.195Z,11.63
2023-04-21T19:44:13.112Z,8.13
2023-04-21T19:46:43.113Z,7.83
2023-04-21T19:49:13.103Z,8.27
2023-04-21T19:51:41.141Z,8.87
2023-04-21T19:54:11.968Z,16.20
2023-04-21T19:56:39.299Z,13.43
2023-04-21T19:59:06.196Z,9.80
2023-04-21T20:01:33.741Z,8.23
2023-04-21T20:04:00.748Z,6.47
2023-04-21T20:06:27.490Z,9.13
2023-04-21T20:08:54.539Z,5.00
2023-04-21T20:11:21.307Z,6.43
2023-04-21T20:13:47.967Z,3.43
2023-04-21T20:16:14.547Z,3.87
2023-04-21T20:18:41.090Z,3.93
2023-04-21T20:21:07.585Z,2.57
2023-04-21T20:23:34.091Z,3.00
2023-04-21T20:26:00.611Z,2.23
2023-04-21T20:28:27.744Z,6.17
2023-04-21T20:30:56.325Z,2.87
2023-04-21T20:33:22.906Z,4.10
2023-04-21T20:35:49.913Z,3.83
2023-04-21T20:38:16.478Z,3.17
2023-04-21T20:40:43.130Z,3.33
2023-04-21T20:43:10.454Z,3.33
2023-04-21T20:45:37.910Z,2.77
2023-04-21T20:48:04.763Z,3.83
2023-04-21T20:50:31.261Z,3.20
2023-04-21T20:52:58.218Z,4.40
2023-04-21T20:55:24.925Z,3.67
2023-04-21T20:57:51.480Z,2.67
2023-04-21T21:00:18.073Z,3.17
2023-04-21T21:02:44.810Z,3.50
2023-04-21T21:05:11.719Z,2.60
2023-04-21T21:07:38.248Z,4.90
2023-04-21T21:10:05.216Z,3.80
2023-04-21T21:12:31.700Z,2.97
2023-04-21T21:14:58.599Z,2.87
2023-04-21T21:17:25.113Z,2.83
2023-04-21T21:19:51.707Z,3.73
2023-04-21T21:22:18.221Z,3.27
2023-04-21T21:24:44.780Z,4.07
2023-04-21T21:27:11.586Z,6.33
2023-04-21T21:29:38.495Z,4.90
2023-04-21T21:32:05.311Z,7.67
2023-04-21T21:34:32.809Z,4.27
2023-04-21T21:36:59.308Z,5.83
2023-04-21T21:39:25.816Z,4.63
2023-04-21T21:41:52.309Z,4.20
2023-04-21T21:44:18.843Z,5.40
2023-04-21T21:46:45.502Z,5.47
2023-04-21T21:49:12.087Z,3.30
2023-04-21T21:51:38.569Z,4.40
2023-04-21T21:54:06.814Z,4.90
2023-04-21T21:56:33.386Z,4.83
2023-04-21T21:58:59.867Z,4.03
2023-04-21T22:01:26.398Z,4.33
2023-04-21T22:03:53.923Z,3.90
2023-04-21T22:06:22.508Z,3.90
2023-04-21T22:08:49.034Z,3.93
2023-04-21T22:11:15.889Z,4.40
2023-04-21T22:13:42.411Z,3.53
2023-04-21T22:16:08.963Z,5.40
2023-04-21T22:18:35.626Z,4.63
2023-04-21T22:21:02.186Z,4.20
2023-04-21T22:23:28.704Z,4.30
2023-04-21T22:25:55.854Z,3.90
2023-04-21T22:28:22.431Z,4.40
2023-04-21T22:30:48.945Z,6.07
2023-04-21T22:33:15.488Z,3.90
2023-04-21T22:35:41.996Z,7.60
2023-04-21T22:38:08.528Z,4.33
2023-04-21T22:40:35.162Z,5.87
2023-04-21T22:43:02.197Z,4.83
2023-04-21T22:45:28.746Z,4.30
2023-04-21T22:47:56.289Z,8.10
2023-04-21T22:50:22.933Z,4.90
2023-04-21T22:52:49.420Z,6.20
2023-04-21T22:55:16.036Z,4.80
2023-04-21T22:57:42.814Z,5.27
2023-04-21T23:00:12.033Z,5.30
2023-04-21T23:02:38.816Z,6.77
2023-04-21T23:05:05.896Z,6.37
2023-04-21T23:07:32.437Z,5.73
2023-04-21T23:09:59.254Z,6.13
2023-04-21T23:12:25.894Z,7.40
2023-04-21T23:14:52.484Z,6.40
2023-04-21T23:17:19.004Z,6.17
2023-04-21T23:19:46.042Z,6.03
2023-04-21T23:22:12.534Z,7.87
2023-04-21T23:24:39.042Z,7.13
2023-04-21T23:27:05.603Z,5.83
2023-04-21T23:29:32.309Z,5.67
2023-04-21T23:31:58.871Z,7.50
2023-04-21T23:34:25.418Z,8.60
2023-04-21T23:36:51.927Z,5.17
2023-04-21T23:39:21.657Z,7.00
2023-04-21T23:41:48.346Z,6.00
2023-04-21T23:44:15.109Z,7.20
2023-04-21T23:46:41.746Z,6.90
2023-04-21T23:49:08.354Z,6.03
2023-04-21T23:51:34.944Z,7.13
2023-04-21T23:54:02.272Z,6.10
2023-04-21T23:56:29.059Z,6.20
2023-04-21T23:58:55.770Z,6.87
